Time;durP1;ratioP1;P1;durP2;ratioP2;P2;SDS_P1;SDS_P2;PMS_P1;PMS_P2;Temp;Humidity;BMP_temperature;BMP_pressure;BME280_temperature;BME280_humidity;BME280_pressure;Samples;Min_cycle;Max_cycle;Signal;HPM_P1;HPM_P2
2023/01/30 00:01:05;;;;;;;18.08;16.27;;;2.00;96.10;;;;;;10549062;28;20226;-80
2023/01/30 00:06:08;;;;;;;19.10;16.97;;;2.20;96.40;;;;;;10507119;28;20323;-77
2023/01/30 00:11:12;;;;;;;20.00;17.93;;;2.40;94.90;;;;;;10532326;28;20715;-80
2023/01/30 00:16:15;;;;;;;19.60;17.50;;;2.30;94.70;;;;;;10521340;28;20198;-77
2023/01/30 00:21:18;;;;;;;19.13;17.13;;;2.20;95.00;;;;;;10530019;28;20310;-78
2023/01/30 00:26:20;;;;;;;18.60;16.60;;;2.20;95.00;;;;;;10554591;28;20224;-79
2023/01/30 00:31:23;;;;;;;18.75;16.85;;;2.20;95.10;;;;;;10502697;28;20218;-77
2023/01/30 00:36:25;;;;;;;17.23;15.47;;;2.40;95.70;;;;;;10500731;28;20196;-77
2023/01/30 00:47:04;;;;;;;18.37;16.67;;;2.40;96.00;;;;;;10526444;28;20737;-77
2023/01/30 00:47:07;;;;;;;18.83;16.93;;;2.50;95.50;;;;;;10532512;28;20494;-77
2023/01/30 00:52:09;;;;;;;19.43;17.43;;;2.50;95.50;;;;;;10503951;28;20223;-77
2023/01/30 00:57:11;;;;;;;18.03;16.23;;;2.50;95.90;;;;;;10533988;28;20279;-77
2023/01/30 01:02:15;;;;;;;18.23;16.43;;;2.50;95.70;;;;;;10542042;28;20641;-77
2023/01/30 01:07:17;;;;;;;17.73;15.93;;;2.50;95.60;;;;;;10541870;28;20277;-78
2023/01/30 01:12:19;;;;;;;17.33;15.63;;;2.50;95.70;;;;;;10523133;28;20219;-77
2023/01/30 01:17:22;;;;;;;18.53;16.70;;;2.50;95.70;;;;;;10522707;28;20196;-77
2023/01/30 01:22:25;;;;;;;17.03;15.43;;;2.50;95.70;;;;;;10522063;28;20219;-77
2023/01/30 01:27:27;;;;;;;18.37;16.43;;;2.50;95.80;;;;;;10525663;28;20687;-78
2023/01/30 01:32:30;;;;;;;22.23;19.93;;;2.60;94.80;;;;;;10529594;28;20265;-77
2023/01/30 01:37:32;;;;;;;16.87;15.23;;;2.50;95.10;;;;;;10530695;28;20191;-78
2023/01/30 01:42:37;;;;;;;16.97;15.30;;;2.50;95.10;;;;;;10594662;22;20313;-80
2023/01/30 01:47:45;;;;;;;17.40;15.60;;;2.50;94.90;;;;;;10552546;28;20223;-78
2023/01/30 01:52:51;;;;;;;17.00;15.40;;;2.40;94.00;;;;;;10581132;28;20223;-82
2023/01/30 01:57:59;;;;;;;17.40;15.67;;;2.20;94.80;;;;;;10575061;28;20199;-82
2023/01/30 02:03:06;;;;;;;17.30;15.50;;;2.10;95.00;;;;;;10546352;28;20272;-82
2023/01/30 02:08:13;;;;;;;18.10;16.17;;;2.10;94.50;;;;;;10552032;28;20215;-79
2023/01/30 02:13:15;;;;;;;17.50;15.80;;;2.00;94.70;;;;;;10559582;28;20216;-79
2023/01/30 02:18:19;;;;;;;18.20;16.30;;;1.90;94.90;;;;;;10546705;28;20191;-79
2023/01/30 02:24:08;;;;;;;17.40;15.43;;;1.80;95.10;;;;;;10548395;28;20215;-79
2023/01/30 02:29:41;;;;;;;18.30;16.40;;;1.80;95.00;;;;;;10501099;28;20223;-77
2023/01/30 02:34:54;;;;;;;17.10;15.40;;;1.70;95.40;;;;;;10547530;28;20223;-81
2023/01/30 02:40:10;;;;;;;19.80;17.80;;;1.70;95.10;;;;;;10533808;28;20651;-82
2023/01/30 02:45:29;;;;;;;18.37;16.40;;;1.60;95.50;;;;;;10572348;28;20658;-78
2023/01/30 02:50:38;;;;;;;17.13;15.43;;;1.60;95.70;;;;;;10544208;28;20249;-77
2023/01/30 02:55:42;;;;;;;17.20;15.60;;;1.60;95.40;;;;;;10522791;28;20229;-78
2023/01/30 03:01:03;;;;;;;18.43;16.63;;;1.50;95.40;;;;;;10543271;28;20230;-79
2023/01/30 03:06:28;;;;;;;16.90;15.27;;;1.50;95.40;;;;;;10519823;28;20227;-79
2023/01/30 03:11:38;;;;;;;19.90;17.53;;;1.50;95.40;;;;;;10521773;28;20222;-79
2023/01/30 03:16:41;;;;;;;19.13;17.20;;;1.40;95.70;;;;;;10547610;28;20215;-78
2023/01/30 03:21:45;;;;;;;23.90;18.83;;;1.50;95.30;;;;;;10555511;28;20234;-79
2023/01/30 03:26:54;;;;;;;17.23;15.55;;;1.50;95.70;;;;;;10544243;28;20215;-79
2023/01/30 03:31:59;;;;;;;21.27;16.23;;;1.70;95.30;;;;;;10550831;28;20219;-82
2023/01/30 03:37:04;;;;;;;17.10;15.40;;;1.90;94.50;;;;;;10534040;28;20191;-78
2023/01/30 03:42:18;;;;;;;16.15;14.55;;;1.90;94.60;;;;;;10547494;28;20245;-81
2023/01/30 03:47:21;;;;;;;16.47;14.77;;;2.10;94.20;;;;;;10551250;28;20542;-82
2023/01/30 03:52:27;;;;;;;16.27;14.77;;;2.10;94.30;;;;;;10549012;28;20215;-79
2023/01/30 03:57:29;;;;;;;14.90;13.50;;;2.20;94.00;;;;;;10548514;28;20252;-80
2023/01/30 04:02:32;;;;;;;16.40;14.70;;;2.20;94.10;;;;;;10568666;28;20219;-81
2023/01/30 04:07:37;;;;;;;15.40;13.80;;;2.20;93.70;;;;;;10564274;28;20246;-80
2023/01/30 04:12:39;;;;;;;14.75;13.25;;;2.30;93.90;;;;;;10548365;28;20217;-77
2023/01/30 04:17:43;;;;;;;15.05;13.65;;;2.60;93.50;;;;;;10544588;28;20198;-79
2023/01/30 04:23:04;;;;;;;16.40;14.90;;;2.80;92.70;;;;;;10525858;28;20643;-79
2023/01/30 04:28:06;;;;;;;14.03;12.83;;;2.70;92.90;;;;;;10566489;28;20222;-79
2023/01/30 04:33:11;;;;;;;14.73;13.30;;;2.60;92.80;;;;;;10552290;28;20778;-82
2023/01/30 04:38:15;;;;;;;14.33;13.03;;;2.50;92.90;;;;;;10555785;28;20195;-82
2023/01/30 04:43:17;;;;;;;13.60;12.20;;;2.50;92.60;;;;;;10591358;28;20659;-78
2023/01/30 04:48:46;;;;;;;14.03;12.63;;;2.50;92.70;;;;;;10576950;28;20230;-78
2023/01/30 04:53:49;;;;;;;13.53;12.30;;;2.50;93.30;;;;;;10579607;28;20219;-77
2023/01/30 04:58:51;;;;;;;12.07;11.07;;;2.60;92.80;;;;;;10559889;28;20619;-79
2023/01/30 05:03:55;;;;;;;12.60;11.43;;;2.70;92.30;;;;;;10559871;28;20214;-78
2023/01/30 05:08:58;;;;;;;12.50;11.40;;;2.80;92.00;;;;;;10564206;28;20566;-79
2023/01/30 05:14:01;;;;;;;12.17;10.90;;;2.90;92.60;;;;;;10542921;28;20207;-79
2023/01/30 05:19:03;;;;;;;11.40;10.27;;;3.00;92.70;;;;;;10554201;28;20199;-79
2023/01/30 05:24:07;;;;;;;10.57;9.63;;;3.10;92.70;;;;;;10535526;28;20229;-78
2023/01/30 05:29:10;;;;;;;12.33;11.03;;;3.10;92.20;;;;;;10577346;28;20279;-78
2023/01/30 05:34:12;;;;;;;12.67;11.57;;;3.20;92.50;;;;;;10577728;28;20226;-79
2023/01/30 05:39:16;;;;;;;11.93;10.83;;;3.20;92.50;;;;;;10542713;28;20187;-79
2023/01/30 05:44:18;;;;;;;13.33;12.00;;;3.30;92.30;;;;;;10572577;28;20227;-79
2023/01/30 05:49:20;;;;;;;12.37;11.17;;;3.30;92.00;;;;;;10560270;28;20717;-79
2023/01/30 05:54:24;;;;;;;11.33;10.33;;;3.30;92.30;;;;;;10576249;28;20223;-79
2023/01/30 05:59:26;;;;;;;12.90;11.70;;;3.30;91.70;;;;;;10559036;28;20575;-79
2023/01/30 06:04:28;;;;;;;11.90;10.80;;;3.20;92.20;;;;;;10563248;28;20789;-81
2023/01/30 06:09:32;;;;;;;12.83;11.73;;;3.10;92.40;;;;;;10584293;28;20247;-81
2023/01/30 06:14:34;;;;;;;13.10;11.80;;;3.10;92.60;;;;;;10566658;28;20326;-81
2023/01/30 06:19:36;;;;;;;14.57;12.03;;;3.10;92.40;;;;;;10536267;28;20209;-80
2023/01/30 06:24:39;;;;;;;11.87;10.77;;;3.10;92.70;;;;;;10593510;28;20663;-81
2023/01/30 06:29:41;;;;;;;13.50;12.20;;;3.10;92.60;;;;;;10574041;28;20260;-81
2023/01/30 06:34:43;;;;;;;13.13;11.80;;;3.10;92.60;;;;;;10558162;28;20202;-80
2023/01/30 06:39:47;;;;;;;13.90;12.50;;;3.00;92.50;;;;;;10559212;28;20191;-80
2023/01/30 06:44:49;;;;;;;11.97;10.83;;;3.00;92.90;;;;;;10560594;28;20191;-81
2023/01/30 06:49:51;;;;;;;12.32;11.23;;;3.10;93.20;;;;;;10571120;28;20227;-81
2023/01/30 06:54:54;;;;;;;12.60;11.25;;;3.30;93.30;;;;;;10559129;28;20251;-80
2023/01/30 06:59:58;;;;;;;12.30;11.20;;;3.60;92.90;;;;;;10570993;28;20283;-80
2023/01/30 07:05:01;;;;;;;12.60;11.40;;;3.60;92.70;;;;;;10588247;28;20227;-81
2023/01/30 07:10:07;;;;;;;11.97;10.83;;;3.50;93.10;;;;;;10551937;28;20250;-79
2023/01/30 07:15:09;;;;;;;12.50;11.30;;;3.40;93.30;;;;;;10568566;28;20274;-80
2023/01/30 07:20:12;;;;;;;13.27;11.97;;;3.50;93.30;;;;;;10577248;28;20224;-80
2023/01/30 07:25:16;;;;;;;13.17;11.77;;;3.50;92.70;;;;;;10590150;28;20654;-80
2023/01/30 07:30:18;;;;;;;12.50;11.40;;;3.70;92.60;;;;;;10567807;28;20227;-80
2023/01/30 07:35:21;;;;;;;12.27;10.97;;;3.70;92.50;;;;;;10591096;28;20301;-80
2023/01/30 07:40:25;;;;;;;11.30;10.20;;;3.60;92.90;;;;;;10586858;22;20264;-78
2023/01/30 07:45:31;;;;;;;11.97;10.80;;;3.70;92.90;;;;;;10538495;28;20231;-78
2023/01/30 07:50:33;;;;;;;10.93;9.93;;;3.70;93.30;;;;;;10569166;28;20226;-78
2023/01/30 07:55:37;;;;;;;11.80;10.70;;;3.80;93.50;;;;;;10567105;28;20225;-78
2023/01/30 08:00:39;;;;;;;10.27;9.15;;;3.80;93.70;;;;;;10568048;28;20254;-78
2023/01/30 08:05:41;;;;;;;10.70;9.67;;;4.10;93.30;;;;;;10506927;28;20219;-78
2023/01/30 08:10:44;;;;;;;10.60;9.30;;;4.20;93.30;;;;;;10584173;28;20231;-78
2023/01/30 08:15:47;;;;;;;13.90;10.10;;;4.20;93.00;;;;;;10585713;28;20203;-78
2023/01/30 08:20:49;;;;;;;10.50;9.60;;;4.20;93.20;;;;;;10573299;28;20277;-78
2023/01/30 08:25:55;;;;;;;11.13;10.03;;;4.20;93.50;;;;;;10586493;28;20199;-79
2023/01/30 08:30:58;;;;;;;10.70;9.73;;;4.20;94.30;;;;;;10586957;28;20270;-79
2023/01/30 08:36:00;;;;;;;11.93;10.60;;;4.40;94.30;;;;;;10586037;28;20200;-78
2023/01/30 08:41:07;;;;;;;10.83;9.83;;;4.60;93.70;;;;;;10551233;28;20235;-79
2023/01/30 08:46:09;;;;;;;10.27;9.37;;;4.50;93.70;;;;;;10552728;28;20207;-78
2023/01/30 08:51:11;;;;;;;11.07;9.97;;;4.30;94.20;;;;;;10568460;28;20845;-78
2023/01/30 08:56:14;;;;;;;10.50;9.60;;;4.30;93.90;;;;;;10585328;28;20577;-78
2023/01/30 09:01:16;;;;;;;9.33;8.40;;;4.30;94.30;;;;;;10569595;28;20215;-79
2023/01/30 09:06:18;;;;;;;8.07;7.32;;;4.40;94.70;;;;;;10566557;28;20227;-78
2023/01/30 09:11:22;;;;;;;9.90;8.90;;;4.60;94.30;;;;;;10583929;28;20698;-78
2023/01/30 09:16:24;;;;;;;8.10;7.30;;;4.70;93.90;;;;;;10569121;28;20242;-78
2023/01/30 09:21:27;;;;;;;8.77;7.30;;;4.80;94.00;;;;;;10560158;28;20226;-79
2023/01/30 09:26:30;;;;;;;8.48;7.32;;;4.90;94.40;;;;;;10586340;28;20701;-78
2023/01/30 09:31:32;;;;;;;7.90;7.20;;;5.30;94.30;;;;;;10567261;28;20402;-78
2023/01/30 09:36:34;;;;;;;9.30;8.40;;;5.40;93.20;;;;;;10568430;28;20653;-78
2023/01/30 09:42:08;;;;;;;9.90;7.15;;;5.50;93.20;;;;;;10583941;28;20305;-79
2023/01/30 09:47:12;;;;;;;6.90;6.20;;;5.50;93.50;;;;;;10587914;28;20692;-77
2023/01/30 09:52:24;;;;;;;7.40;6.63;;;5.40;93.90;;;;;;10538840;28;20235;-78
2023/01/30 09:57:29;;;;;;;7.53;6.60;;;5.40;94.30;;;;;;10594866;28;20261;-78
2023/01/30 10:02:41;;;;;;;6.43;5.83;;;5.50;94.40;;;;;;10595142;28;20215;-79
2023/01/30 10:07:59;;;;;;;6.30;5.60;;;5.50;94.00;;;;;;10516964;28;20224;-78
2023/01/30 10:13:10;;;;;;;5.83;5.33;;;5.50;94.00;;;;;;10535376;28;20243;-79
2023/01/30 10:18:46;;;;;;;5.93;5.20;;;5.50;94.60;;;;;;10593535;28;20188;-78
2023/01/30 10:24:13;;;;;;;5.13;4.63;;;5.60;94.30;;;;;;10509818;28;20216;-79
2023/01/30 10:29:21;;;;;;;5.72;5.25;;;5.70;94.50;;;;;;10591439;28;20720;-78
2023/01/30 10:34:29;;;;;;;5.60;5.10;;;6.00;94.70;;;;;;10560044;28;20220;-78
2023/01/30 10:39:38;;;;;;;4.70;4.40;;;6.00;94.60;;;;;;10574634;28;20195;-78
2023/01/30 10:44:42;;;;;;;4.63;4.23;;;6.00;95.20;;;;;;10553678;28;20690;-79
2023/01/30 10:49:49;;;;;;;3.85;3.55;;;6.10;95.10;;;;;;10571430;28;20218;-78
2023/01/30 10:55:01;;;;;;;4.50;4.15;;;6.20;95.10;;;;;;10571313;28;20293;-78
2023/01/30 11:00:14;;;;;;;5.07;4.53;;;6.40;95.30;;;;;;10560120;28;20187;-79
2023/01/30 11:05:20;;;;;;;3.50;3.30;;;6.40;95.40;;;;;;10574802;28;20192;-78
2023/01/30 11:10:24;;;;;;;4.80;4.40;;;6.20;95.60;;;;;;10571762;28;20208;-78
2023/01/30 11:15:40;;;;;;;4.87;4.50;;;6.20;95.80;;;;;;10571529;28;20222;-78
2023/01/30 11:20:45;;;;;;;4.20;3.90;;;6.20;96.50;;;;;;10544930;28;20218;-79
2023/01/30 11:25:49;;;;;;;4.63;4.20;;;6.20;97.40;;;;;;10573250;28;20195;-78
2023/01/30 11:30:57;;;;;;;4.67;4.37;;;6.20;97.40;;;;;;10536286;28;20224;-79
2023/01/30 11:36:02;;;;;;;5.37;4.97;;;6.20;96.80;;;;;;10551123;28;20646;-79
2023/01/30 11:41:17;;;;;;;5.80;5.20;;;6.10;97.70;;;;;;10569381;28;20222;-79
2023/01/30 11:46:29;;;;;;;6.07;5.43;;;6.10;97.60;;;;;;10571522;28;20197;-79
2023/01/30 11:51:35;;;;;;;7.10;6.17;;;6.00;98.40;;;;;;10553210;28;20309;-79
2023/01/30 11:56:41;;;;;;;5.83;5.43;;;5.80;99.10;;;;;;10553077;28;20198;-79
2023/01/30 12:01:45;;;;;;;6.32;5.93;;;5.60;99.80;;;;;;10536716;28;20520;-79
2023/01/30 12:07:03;;;;;;;5.83;5.43;;;5.60;99.90;;;;;;10561208;28;20205;-78
2023/01/30 12:12:28;;;;;;;6.03;5.63;;;5.60;99.90;;;;;;10563805;28;20931;-78
2023/01/30 12:17:42;;;;;;;6.80;6.30;;;5.50;99.90;;;;;;10569006;28;20187;-78
2023/01/30 12:22:51;;;;;;;6.63;6.13;;;5.40;99.90;;;;;;10549393;28;20219;-78
2023/01/30 12:27:59;;;;;;;6.57;6.07;;;5.50;99.90;;;;;;10566847;28;20487;-78
2023/01/30 12:33:05;;;;;;;6.57;6.07;;;5.40;99.90;;;;;;10550482;28;20248;-78
2023/01/30 12:38:13;;;;;;;6.30;5.80;;;5.40;99.90;;;;;;10564585;28;20201;-78
2023/01/30 12:43:33;;;;;;;6.57;5.97;;;5.40;99.90;;;;;;10552907;28;20929;-78
2023/01/30 12:48:56;;;;;;;7.40;6.80;;;5.40;99.90;;;;;;10561678;28;20224;-78
2023/01/30 12:54:08;;;;;;;7.00;6.40;;;5.20;99.90;;;;;;10576495;28;20214;-78
2023/01/30 12:59:17;;;;;;;8.30;7.70;;;5.10;99.90;;;;;;10574984;28;20568;-77
2023/01/30 13:04:39;;;;;;;8.27;7.57;;;5.00;99.90;;;;;;10605204;28;20280;-78
2023/01/30 13:09:56;;;;;;;9.03;8.37;;;5.00;99.90;;;;;;10594997;28;20249;-78
2023/01/30 13:15:07;;;;;;;8.77;8.03;;;4.90;99.90;;;;;;10609525;28;20271;-78
2023/01/30 13:20:22;;;;;;;9.20;8.47;;;4.90;99.90;;;;;;10571866;28;20246;-78
2023/01/30 13:25:32;;;;;;;9.07;8.47;;;4.80;99.90;;;;;;10603721;28;20285;-78
2023/01/30 13:30:35;;;;;;;9.10;8.40;;;4.90;99.90;;;;;;10577469;28;20235;-78
2023/01/30 13:35:44;;;;;;;10.17;9.30;;;4.90;99.90;;;;;;10578064;28;20260;-78
2023/01/30 13:40:49;;;;;;;9.67;8.67;;;4.90;99.90;;;;;;10555256;28;20221;-80
2023/01/30 13:45:54;;;;;;;9.40;8.50;;;5.00;99.90;;;;;;10552384;28;20198;-77
2023/01/30 13:51:11;;;;;;;9.63;8.83;;;5.00;99.90;;;;;;10559469;28;20280;-80
2023/01/30 13:56:21;;;;;;;9.30;8.50;;;5.10;99.90;;;;;;10553944;28;20537;-77
2023/01/30 14:01:26;;;;;;;9.43;8.70;;;5.10;99.90;;;;;;10557858;28;20202;-78
2023/01/30 14:06:37;;;;;;;9.10;8.30;;;5.20;99.90;;;;;;10574870;28;20201;-78
2023/01/30 14:11:47;;;;;;;9.63;8.83;;;5.20;99.90;;;;;;10567222;28;20306;-80
2023/01/30 14:16:52;;;;;;;7.63;7.22;;;5.40;99.90;;;;;;10543047;28;20611;-78
2023/01/30 14:21:58;;;;;;;6.87;6.27;;;5.60;99.90;;;;;;10561594;28;20216;-77
2023/01/30 14:27:21;;;;;;;8.30;7.60;;;5.70;99.90;;;;;;10546483;28;20595;-77
2023/01/30 14:32:55;;;;;;;6.27;5.87;;;5.70;99.90;;;;;;10551363;28;20224;-76
2023/01/30 14:38:14;;;;;;;5.10;4.80;;;5.70;99.90;;;;;;10568031;28;20217;-77
2023/01/30 14:43:50;;;;;;;4.50;4.30;;;5.80;99.90;;;;;;10541729;28;20287;-79
2023/01/30 14:48:56;;;;;;;3.93;3.63;;;5.90;99.90;;;;;;10561208;28;20243;-78
2023/01/30 14:54:02;;;;;;;4.30;4.00;;;5.90;99.90;;;;;;10557271;28;20223;-79
2023/01/30 14:59:09;;;;;;;3.70;3.50;;;5.90;99.90;;;;;;10573836;28;20203;-76
2023/01/30 15:04:16;;;;;;;5.80;4.60;;;5.80;99.90;;;;;;10564033;28;20276;-79
2023/01/30 15:09:21;;;;;;;5.80;5.30;;;5.80;99.90;;;;;;10571849;28;20230;-80
2023/01/30 15:14:32;;;;;;;5.20;4.80;;;5.90;99.90;;;;;;10576650;28;20317;-80
2023/01/30 15:19:55;;;;;;;6.57;4.70;;;5.80;99.90;;;;;;10548932;28;20595;-78
2023/01/30 15:25:33;;;;;;;5.60;5.20;;;5.70;99.90;;;;;;10582226;28;20278;-78
2023/01/30 15:30:49;;;;;;;4.93;4.60;;;5.70;99.90;;;;;;10558001;28;20746;-80
2023/01/30 15:35:51;;;;;;;7.22;5.63;;;5.80;99.90;;;;;;10554749;28;20198;-80
2023/01/30 15:40:56;;;;;;;5.00;4.60;;;5.90;99.90;;;;;;10553502;28;20273;-79
2023/01/30 15:46:10;;;;;;;6.33;5.77;;;6.00;99.90;;;;;;10568771;28;20227;-78
2023/01/30 15:51:15;;;;;;;6.67;6.07;;;5.90;99.90;;;;;;10570150;28;20252;-78
2023/01/30 15:56:22;;;;;;;7.25;6.65;;;5.90;99.90;;;;;;10552579;28;20207;-79
2023/01/30 16:01:25;;;;;;;6.53;5.93;;;6.00;99.90;;;;;;10585544;28;20620;-79
2023/01/30 16:06:31;;;;;;;5.37;4.87;;;6.00;99.90;;;;;;10565011;28;20647;-79
2023/01/30 16:11:40;;;;;;;5.57;5.00;;;6.00;99.90;;;;;;10565736;28;20592;-79
2023/01/30 16:16:53;;;;;;;8.17;6.20;;;6.00;99.90;;;;;;10569333;28;20238;-78
2023/01/30 16:21:59;;;;;;;6.17;5.43;;;5.80;99.90;;;;;;10545281;28;20219;-79
2023/01/30 16:27:06;;;;;;;6.07;5.40;;;5.70;99.90;;;;;;10555258;28;20203;-77
2023/01/30 16:32:13;;;;;;;6.43;5.82;;;5.70;99.90;;;;;;10571054;28;20218;-79
2023/01/30 16:37:27;;;;;;;6.60;6.10;;;5.80;99.90;;;;;;10586190;28;20531;-79
2023/01/30 16:42:30;;;;;;;8.30;6.53;;;5.80;99.90;;;;;;10531091;28;20314;-79
2023/01/30 16:47:33;;;;;;;6.13;5.53;;;5.70;99.90;;;;;;10564628;28;20297;-79
2023/01/30 16:52:40;;;;;;;5.80;5.40;;;5.70;99.90;;;;;;10566183;28;20786;-79
2023/01/30 16:57:49;;;;;;;5.93;5.53;;;5.70;99.90;;;;;;10544556;28;20256;-79
2023/01/30 17:02:54;;;;;;;9.05;6.13;;;5.80;99.90;;;;;;10515350;28;20558;-78
2023/01/30 17:07:59;;;;;;;7.43;5.77;;;6.00;99.90;;;;;;10540242;28;20200;-79
2023/01/30 17:13:03;;;;;;;5.57;5.17;;;5.90;99.90;;;;;;10523584;28;20286;-79
2023/01/30 17:18:08;;;;;;;6.40;5.90;;;5.90;99.90;;;;;;10525373;28;20534;-79
2023/01/30 17:23:18;;;;;;;5.97;5.47;;;5.80;99.90;;;;;;10523130;28;20232;-78
2023/01/30 17:28:23;;;;;;;6.70;6.10;;;5.70;99.90;;;;;;10528958;28;20239;-78
2023/01/30 17:33:29;;;;;;;6.70;5.40;;;5.60;99.90;;;;;;10528014;28;20222;-78
2023/01/30 17:38:31;;;;;;;5.80;5.30;;;5.60;99.90;;;;;;10524794;28;20674;-78
2023/01/30 17:43:34;;;;;;;6.68;6.07;;;5.50;99.90;;;;;;10543424;28;20233;-78
2023/01/30 17:48:36;;;;;;;8.13;6.50;;;5.60;99.90;;;;;;10540405;28;20211;-79
2023/01/30 17:53:39;;;;;;;8.10;6.10;;;5.60;99.90;;;;;;10539722;28;20234;-78
2023/01/30 17:58:42;;;;;;;6.60;6.10;;;5.50;99.90;;;;;;10534725;28;20192;-78
2023/01/30 18:03:44;;;;;;;6.87;6.30;;;5.40;99.90;;;;;;10524181;28;20289;-77
2023/01/30 18:08:49;;;;;;;7.90;5.50;;;5.50;99.90;;;;;;10536127;28;20334;-78
2023/01/30 18:13:53;;;;;;;7.07;6.37;;;5.50;99.90;;;;;;10515786;28;20227;-78
2023/01/30 18:18:56;;;;;;;6.97;6.30;;;5.40;99.90;;;;;;10547010;28;20200;-78
2023/01/30 18:23:58;;;;;;;6.30;5.80;;;5.40;99.90;;;;;;10528940;28;20255;-79
2023/01/30 18:29:02;;;;;;;8.67;7.77;;;5.30;99.90;;;;;;10532569;28;20223;-78
2023/01/30 18:34:05;;;;;;;8.77;7.67;;;5.40;99.90;;;;;;10541447;28;20358;-78
2023/01/30 18:39:08;;;;;;;7.70;7.10;;;5.30;99.90;;;;;;10534703;28;20572;-78
2023/01/30 18:44:11;;;;;;;8.17;7.27;;;5.40;99.90;;;;;;10533594;28;20246;-78
2023/01/30 18:49:13;;;;;;;7.00;6.30;;;5.30;99.90;;;;;;10525006;28;20212;-79
2023/01/30 18:54:16;;;;;;;7.57;6.97;;;5.40;99.90;;;;;;10524690;28;20232;-80
2023/01/30 18:59:19;;;;;;;7.83;7.00;;;5.50;99.90;;;;;;10545740;28;20204;-79
2023/01/30 19:04:21;;;;;;;8.13;7.33;;;5.50;99.90;;;;;;10525903;28;20236;-79
2023/01/30 19:09:25;;;;;;;6.40;5.80;;;5.60;99.90;;;;;;10530732;28;20231;-79
2023/01/30 19:14:28;;;;;;;8.07;6.80;;;5.60;99.90;;;;;;10535610;28;20223;-79
2023/01/30 19:19:32;;;;;;;7.57;6.90;;;5.50;99.90;;;;;;10571248;28;20222;-80
2023/01/30 19:24:34;;;;;;;7.10;6.50;;;5.50;99.90;;;;;;10547247;28;20295;-78
2023/01/30 19:29:37;;;;;;;10.17;6.90;;;5.60;99.90;;;;;;10533580;28;20287;-78
2023/01/30 19:34:39;;;;;;;6.60;5.97;;;5.60;99.90;;;;;;10539190;28;20409;-79
2023/01/30 19:39:41;;;;;;;8.95;8.15;;;5.60;99.90;;;;;;10557321;28;20202;-79
2023/01/30 19:44:45;;;;;;;8.43;7.60;;;5.80;99.90;;;;;;10527233;22;20244;-80
2023/01/30 19:49:47;;;;;;;8.13;7.50;;;5.80;99.90;;;;;;10474156;28;20217;-77
2023/01/30 19:54:49;;;;;;;9.53;5.90;;;5.70;99.90;;;;;;10459079;28;20391;-79
2023/01/30 19:59:53;;;;;;;8.50;7.77;;;5.70;99.90;;;;;;10438968;28;20232;-80
2023/01/30 20:04:55;;;;;;;6.82;6.22;;;5.70;99.90;;;;;;10433727;28;20671;-82
2023/01/30 20:09:57;;;;;;;6.63;5.70;;;5.80;99.90;;;;;;10422255;28;20224;-79
2023/01/30 20:15:02;;;;;;;7.57;6.97;;;5.90;99.90;;;;;;10464305;28;20225;-79
2023/01/30 20:20:05;;;;;;;7.20;6.57;;;5.80;99.90;;;;;;10478921;28;20197;-79
2023/01/30 20:25:09;;;;;;;11.00;7.63;;;5.80;99.90;;;;;;10447764;28;20224;-81
2023/01/30 20:30:13;;;;;;;8.20;7.47;;;5.80;99.90;;;;;;10437140;28;20225;-81
2023/01/30 20:35:16;;;;;;;8.07;7.37;;;5.90;99.90;;;;;;10438498;28;20240;-80
2023/01/30 20:40:18;;;;;;;17.77;14.20;;;6.00;99.90;;;;;;10434539;28;20605;-78
2023/01/30 20:45:23;;;;;;;11.10;9.73;;;5.90;99.90;;;;;;10415825;28;20425;-79
2023/01/30 20:50:26;;;;;;;8.77;7.63;;;5.90;99.90;;;;;;10441304;28;20275;-80
2023/01/30 20:55:28;;;;;;;8.88;8.05;;;6.10;99.90;;;;;;10454009;28;20565;-79
2023/01/30 21:00:31;;;;;;;8.50;7.70;;;6.30;99.90;;;;;;10424207;28;20224;-78
2023/01/30 21:05:33;;;;;;;10.67;8.07;;;6.20;99.90;;;;;;10449792;28;20208;-78
2023/01/30 21:10:38;;;;;;;8.73;7.93;;;6.20;99.90;;;;;;10434081;28;20232;-79
2023/01/30 21:15:42;;;;;;;9.27;8.30;;;6.10;99.90;;;;;;10431854;28;20208;-78
2023/01/30 21:20:48;;;;;;;9.03;7.90;;;6.10;99.90;;;;;;10434505;28;20578;-78
2023/01/30 21:25:50;;;;;;;9.60;8.60;;;6.10;99.90;;;;;;10450705;28;20204;-80
2023/01/30 21:30:54;;;;;;;9.37;8.00;;;6.00;99.90;;;;;;10434223;28;20239;-79
2023/01/30 21:35:58;;;;;;;10.57;8.15;;;6.00;99.90;;;;;;10460413;28;20244;-80
2023/01/30 21:46:21;;;;;;;8.87;8.07;;;6.20;99.90;;;;;;10441312;28;20217;-81
2023/01/30 21:51:24;;;;;;;11.30;8.27;;;6.00;99.90;;;;;;10461396;28;20235;-80
2023/01/30 21:56:27;;;;;;;8.60;7.70;;;6.00;99.90;;;;;;10463219;28;20208;-81
2023/01/30 22:01:30;;;;;;;10.17;7.93;;;5.90;99.90;;;;;;10445559;28;20236;-81
2023/01/30 22:06:33;;;;;;;11.10;8.00;;;5.90;99.90;;;;;;10459077;28;20572;-80
2023/01/30 22:11:37;;;;;;;10.10;8.20;;;6.10;99.90;;;;;;10443761;28;20875;-82
2023/01/30 22:16:41;;;;;;;9.00;7.77;;;6.10;99.90;;;;;;10442143;28;20205;-80
2023/01/30 22:21:43;;;;;;;9.20;7.57;;;6.10;99.90;;;;;;10445438;28;20971;-80
2023/01/30 22:26:45;;;;;;;8.67;7.80;;;6.00;99.90;;;;;;10446644;28;20206;-79
2023/01/30 22:31:48;;;;;;;8.93;8.02;;;5.90;99.90;;;;;;10447884;28;20226;-80
2023/01/30 22:36:50;;;;;;;9.77;8.83;;;6.00;99.90;;;;;;10463778;28;20265;-83
2023/01/30 22:41:52;;;;;;;9.80;8.02;;;6.10;99.90;;;;;;10430614;28;20232;-82
2023/01/30 22:46:56;;;;;;;11.73;9.00;;;6.10;99.90;;;;;;10466317;28;20615;-83
2023/01/30 22:51:58;;;;;;;9.38;7.95;;;6.30;99.90;;;;;;10429839;28;20240;-82
2023/01/30 22:57:00;;;;;;;9.20;7.73;;;6.40;99.90;;;;;;10432211;28;20209;-82
2023/01/30 23:02:03;;;;;;;9.60;8.60;;;6.30;99.90;;;;;;10455392;28;20716;-82
2023/01/30 23:07:05;;;;;;;10.52;6.90;;;6.10;99.90;;;;;;10492706;28;20205;-79
2023/01/30 23:22:53;;;;;;;11.70;7.60;;;6.10;99.90;;;;;;10421753;28;20229;-80
2023/01/30 23:27:55;;;;;;;8.50;7.60;;;6.00;99.90;;;;;;10450288;28;20205;-81
2023/01/30 23:32:59;;;;;;;9.52;7.18;;;5.90;99.90;;;;;;10433645;28;20236;-82
2023/01/30 23:38:17;;;;;;;8.47;6.87;;;6.00;99.90;;;;;;10454674;28;20208;-81
2023/01/30 23:43:20;;;;;;;9.83;8.40;;;6.00;99.90;;;;;;10424063;28;21008;-81
2023/01/30 23:48:23;;;;;;;8.23;7.07;;;6.00;99.90;;;;;;10440599;28;20215;-81
2023/01/30 23:53:25;;;;;;;10.77;7.27;;;5.90;99.90;;;;;;10443765;28;20231;-82
2023/01/30 23:58:28;;;;;;;7.90;7.10;;;5.80;99.90;;;;;;10428409;28;20215;-83
